sensor_id;sensor_type;location;lat;lon;timestamp;pressure;altitude;pressure_sealevel;temperature;humidity
70248;BME280;57641;51.416;5.506;2023-02-23T00:01:12;101377.81;;;14.37;60.75
70248;BME280;57641;51.416;5.506;2023-02-23T00:03:38;101372.44;;;14.37;61.01
70248;BME280;57641;51.416;5.506;2023-02-23T00:06:05;101379.50;;;14.38;60.80
70248;BME280;57641;51.416;5.506;2023-02-23T00:08:36;101380.00;;;14.42;61.25
70248;BME280;57641;51.416;5.506;2023-02-23T00:11:08;101382.53;;;14.43;60.89
70248;BME280;57641;51.416;5.506;2023-02-23T00:13:36;101379.84;;;14.43;61.02
70248;BME280;57641;51.416;5.506;2023-02-23T00:16:09;101379.50;;;14.38;60.95
70248;BME280;57641;51.416;5.506;2023-02-23T00:18:37;101378.78;;;14.36;61.00
70248;BME280;57641;51.416;5.506;2023-02-23T00:23:58;101375.06;;;14.29;61.57
70248;BME280;57641;51.416;5.506;2023-02-23T00:26:27;101376.06;;;14.28;61.60
70248;BME280;57641;51.416;5.506;2023-02-23T00:29:00;101369.88;;;14.27;61.42
70248;BME280;57641;51.416;5.506;2023-02-23T00:31:27;101367.19;;;14.27;61.48
70248;BME280;57641;51.416;5.506;2023-02-23T00:34:01;101364.97;;;14.23;61.64
70248;BME280;57641;51.416;5.506;2023-02-23T00:36:30;101364.97;;;14.15;62.12
70248;BME280;57641;51.416;5.506;2023-02-23T00:39:00;101362.09;;;14.08;62.51
70248;BME280;57641;51.416;5.506;2023-02-23T00:41:27;101362.59;;;14.12;62.53
70248;BME280;57641;51.416;5.506;2023-02-23T00:43:54;101359.78;;;14.13;62.32
70248;BME280;57641;51.416;5.506;2023-02-23T00:46:22;101360.47;;;14.15;62.46
70248;BME280;57641;51.416;5.506;2023-02-23T00:48:49;101359.78;;;14.13;62.58
70248;BME280;57641;51.416;5.506;2023-02-23T00:51:18;101357.94;;;14.14;62.60
70248;BME280;57641;51.416;5.506;2023-02-23T00:53:44;101361.81;;;14.19;62.14
70248;BME280;57641;51.416;5.506;2023-02-23T00:56:12;101358.97;;;14.21;62.41
70248;BME280;57641;51.416;5.506;2023-02-23T00:58:39;101361.81;;;14.19;62.43
70248;BME280;57641;51.416;5.506;2023-02-23T01:01:10;101359.97;;;14.20;62.61
70248;BME280;57641;51.416;5.506;2023-02-23T01:03:37;101362.50;;;14.21;62.95
70248;BME280;57641;51.416;5.506;2023-02-23T01:06:08;101362.31;;;14.23;62.25
70248;BME280;57641;51.416;5.506;2023-02-23T01:08:37;101357.97;;;14.22;63.03
70248;BME280;57641;51.416;5.506;2023-02-23T01:11:18;101364.97;;;14.23;62.14
70248;BME280;57641;51.416;5.506;2023-02-23T01:13:48;101361.97;;;14.18;62.58
70248;BME280;57641;51.416;5.506;2023-02-23T01:16:18;101367.00;;;14.21;62.85
70248;BME280;57641;51.416;5.506;2023-02-23T01:18:44;101362.50;;;14.21;62.55
70248;BME280;57641;51.416;5.506;2023-02-23T01:21:20;101364.47;;;14.19;62.17
70248;BME280;57641;51.416;5.506;2023-02-23T01:23:46;101367.31;;;14.10;62.51
70248;BME280;57641;51.416;5.506;2023-02-23T01:26:17;101370.13;;;14.00;62.43
70248;BME280;57641;51.416;5.506;2023-02-23T01:28:51;101368.75;;;13.96;63.31
70248;BME280;57641;51.416;5.506;2023-02-23T01:31:18;101369.59;;;13.96;63.59
70248;BME280;57641;51.416;5.506;2023-02-23T01:33:44;101379.19;;;13.99;63.10
70248;BME280;57641;51.416;5.506;2023-02-23T01:36:13;101373.13;;;13.97;63.42
70248;BME280;57641;51.416;5.506;2023-02-23T01:38:40;101368.97;;;14.03;63.59
70248;BME280;57641;51.416;5.506;2023-02-23T01:41:06;101366.97;;;14.05;63.59
70248;BME280;57641;51.416;5.506;2023-02-23T01:43:34;101368.16;;;14.10;63.20
70248;BME280;57641;51.416;5.506;2023-02-23T01:46:02;101367.81;;;14.13;63.45
70248;BME280;57641;51.416;5.506;2023-02-23T01:48:35;101366.81;;;14.14;63.18
70248;BME280;57641;51.416;5.506;2023-02-23T01:51:32;101365.13;;;14.13;62.80
70248;BME280;57641;51.416;5.506;2023-02-23T01:54:06;101370.84;;;14.10;63.14
70248;BME280;57641;51.416;5.506;2023-02-23T01:56:39;101365.28;;;14.12;63.34
70248;BME280;57641;51.416;5.506;2023-02-23T01:59:08;101368.66;;;14.14;63.03
70248;BME280;57641;51.416;5.506;2023-02-23T02:01:40;101369.50;;;14.14;62.96
70248;BME280;57641;51.416;5.506;2023-02-23T02:04:07;101380.38;;;14.05;62.82
70248;BME280;57641;51.416;5.506;2023-02-23T02:06:35;101378.03;;;14.10;63.13
70248;BME280;57641;51.416;5.506;2023-02-23T02:09:06;101380.56;;;14.11;62.95
70248;BME280;57641;51.416;5.506;2023-02-23T02:11:34;101375.84;;;14.13;62.96
70248;BME280;57641;51.416;5.506;2023-02-23T02:31:14;101379.81;;;13.85;63.91
70248;BME280;57641;51.416;5.506;2023-02-23T02:45:51;101368.72;;;13.80;64.02
70248;BME280;57641;51.416;5.506;2023-02-23T02:48:58;101375.94;;;13.79;63.39
70248;BME280;57641;51.416;5.506;2023-02-23T02:54:14;101370.16;;;13.66;63.27
70248;BME280;57641;51.416;5.506;2023-02-23T02:56:44;101368.97;;;13.61;62.48
70248;BME280;57641;51.416;5.506;2023-02-23T02:59:18;101371.34;;;13.64;62.57
70248;BME280;57641;51.416;5.506;2023-02-23T03:02:04;101377.81;;;13.53;61.88
70248;BME280;57641;51.416;5.506;2023-02-23T03:04:49;101381.63;;;13.50;63.31
70248;BME280;57641;51.416;5.506;2023-02-23T03:07:43;101379.28;;;13.47;63.10
70248;BME280;57641;51.416;5.506;2023-02-23T03:16:30;101384.59;;;13.39;63.11
70248;BME280;57641;51.416;5.506;2023-02-23T03:19:27;101382.06;;;13.38;62.59
70248;BME280;57641;51.416;5.506;2023-02-23T03:22:37;101389.09;;;13.39;62.62
70248;BME280;57641;51.416;5.506;2023-02-23T03:25:31;101384.22;;;13.34;63.24
70248;BME280;57641;51.416;5.506;2023-02-23T03:28:29;101388.72;;;13.34;62.98
70248;BME280;57641;51.416;5.506;2023-02-23T03:31:38;101390.28;;;13.36;63.02
70248;BME280;57641;51.416;5.506;2023-02-23T03:34:34;101383.84;;;13.29;63.55
70248;BME280;57641;51.416;5.506;2023-02-23T03:37:41;101388.59;;;13.35;63.11
70248;BME280;57641;51.416;5.506;2023-02-23T03:40:34;101393.94;;;13.35;63.76
70248;BME280;57641;51.416;5.506;2023-02-23T03:43:26;101393.16;;;13.43;63.44
70248;BME280;57641;51.416;5.506;2023-02-23T03:46:13;101398.19;;;13.46;62.31
70248;BME280;57641;51.416;5.506;2023-02-23T03:49:02;101395.19;;;13.49;62.85
70248;BME280;57641;51.416;5.506;2023-02-23T03:51:52;101401.38;;;13.49;62.91
70248;BME280;57641;51.416;5.506;2023-02-23T03:54:48;101399.88;;;13.47;62.72
70248;BME280;57641;51.416;5.506;2023-02-23T03:57:37;101404.38;;;13.46;62.49
70248;BME280;57641;51.416;5.506;2023-02-23T04:00:28;101406.06;;;13.47;62.47
70248;BME280;57641;51.416;5.506;2023-02-23T04:03:16;101405.75;;;13.50;62.66
70248;BME280;57641;51.416;5.506;2023-02-23T04:06:02;101408.28;;;13.52;62.63
70248;BME280;57641;51.416;5.506;2023-02-23T04:08:48;101411.63;;;13.54;62.29
70248;BME280;57641;51.416;5.506;2023-02-23T04:14:37;101407.38;;;13.43;62.97
70248;BME280;57641;51.416;5.506;2023-02-23T04:17:05;101408.91;;;13.46;63.12
70248;BME280;57641;51.416;5.506;2023-02-23T04:19:32;101409.13;;;13.52;63.08
70248;BME280;57641;51.416;5.506;2023-02-23T04:21:58;101414.47;;;13.52;62.74
70248;BME280;57641;51.416;5.506;2023-02-23T04:24:24;101408.78;;;13.56;62.66
70248;BME280;57641;51.416;5.506;2023-02-23T04:26:49;101414.50;;;13.61;62.48
70248;BME280;57641;51.416;5.506;2023-02-23T04:29:15;101419.03;;;13.60;62.23
70248;BME280;57641;51.416;5.506;2023-02-23T04:31:41;101422.69;;;13.59;62.37
70248;BME280;57641;51.416;5.506;2023-02-23T04:34:07;101419.34;;;13.57;61.95
70248;BME280;57641;51.416;5.506;2023-02-23T04:36:33;101420.00;;;13.59;62.57
70248;BME280;57641;51.416;5.506;2023-02-23T04:38:59;101422.41;;;13.62;62.55
70248;BME280;57641;51.416;5.506;2023-02-23T04:41:24;101426.06;;;13.61;62.62
70248;BME280;57641;51.416;5.506;2023-02-23T04:43:50;101422.06;;;13.65;62.34
70248;BME280;57641;51.416;5.506;2023-02-23T04:46:15;101425.06;;;13.62;62.18
70248;BME280;57641;51.416;5.506;2023-02-23T04:48:41;101422.06;;;13.65;62.12
70248;BME280;57641;51.416;5.506;2023-02-23T04:51:09;101423.75;;;13.66;62.23
70248;BME280;57641;51.416;5.506;2023-02-23T04:53:37;101429.25;;;13.65;61.58
70248;BME280;57641;51.416;5.506;2023-02-23T04:56:02;101429.59;;;13.62;61.79
70248;BME280;57641;51.416;5.506;2023-02-23T04:58:29;101427.06;;;13.60;61.81
70248;BME280;57641;51.416;5.506;2023-02-23T05:00:54;101426.41;;;13.58;61.49
70248;BME280;57641;51.416;5.506;2023-02-23T05:03:20;101424.72;;;13.57;61.89
70248;BME280;57641;51.416;5.506;2023-02-23T05:05:47;101421.81;;;13.50;61.41
70248;BME280;57641;51.416;5.506;2023-02-23T05:08:13;101428.72;;;13.53;61.95
70248;BME280;57641;51.416;5.506;2023-02-23T05:10:39;101433.38;;;13.51;61.78
70248;BME280;57641;51.416;5.506;2023-02-23T05:13:04;101436.75;;;13.53;62.03
70248;BME280;57641;51.416;5.506;2023-02-23T05:15:30;101434.88;;;13.53;61.33
70248;BME280;57641;51.416;5.506;2023-02-23T05:17:56;101437.06;;;13.50;61.56
70248;BME280;57641;51.416;5.506;2023-02-23T05:20:21;101440.44;;;13.52;61.42
70248;BME280;57641;51.416;5.506;2023-02-23T05:22:47;101434.22;;;13.51;61.49
70248;BME280;57641;51.416;5.506;2023-02-23T05:25:13;101434.53;;;13.48;61.99
70248;BME280;57641;51.416;5.506;2023-02-23T05:27:38;101435.38;;;13.49;61.71
70248;BME280;57641;51.416;5.506;2023-02-23T05:30:05;101428.16;;;13.49;62.17
70248;BME280;57641;51.416;5.506;2023-02-23T05:32:32;101436.91;;;13.51;61.81
70248;BME280;57641;51.416;5.506;2023-02-23T05:34:59;101436.56;;;13.54;62.34
70248;BME280;57641;51.416;5.506;2023-02-23T05:37:25;101452.50;;;13.56;61.54
70248;BME280;57641;51.416;5.506;2023-02-23T05:39:51;101451.97;;;13.52;62.04
70248;BME280;57641;51.416;5.506;2023-02-23T05:42:17;101449.31;;;13.52;61.63
70248;BME280;57641;51.416;5.506;2023-02-23T05:44:42;101452.97;;;13.51;61.66
70248;BME280;57641;51.416;5.506;2023-02-23T05:47:08;101451.97;;;13.52;62.11
70248;BME280;57641;51.416;5.506;2023-02-23T05:49:36;101453.97;;;13.50;61.56
70248;BME280;57641;51.416;5.506;2023-02-23T05:52:04;101452.59;;;13.46;61.97
70248;BME280;57641;51.416;5.506;2023-02-23T05:54:29;101458.97;;;13.45;62.21
70248;BME280;57641;51.416;5.506;2023-02-23T05:56:55;101457.63;;;13.49;62.44
70248;BME280;57641;51.416;5.506;2023-02-23T05:59:21;101453.97;;;13.50;61.73
70248;BME280;57641;51.416;5.506;2023-02-23T06:01:47;101460.88;;;13.53;62.28
70248;BME280;57641;51.416;5.506;2023-02-23T06:04:13;101450.97;;;13.53;62.25
70248;BME280;57641;51.416;5.506;2023-02-23T06:06:39;101454.66;;;13.52;62.14
70248;BME280;57641;51.416;5.506;2023-02-23T06:09:05;101458.84;;;13.55;62.25
70248;BME280;57641;51.416;5.506;2023-02-23T06:11:33;101462.50;;;13.54;61.48
70248;BME280;57641;51.416;5.506;2023-02-23T06:13:59;101459.31;;;13.50;61.73
70248;BME280;57641;51.416;5.506;2023-02-23T06:16:26;101469.72;;;13.53;61.70
70248;BME280;57641;51.416;5.506;2023-02-23T06:18:55;101469.81;;;13.44;62.05
70248;BME280;57641;51.416;5.506;2023-02-23T06:21:21;101467.00;;;13.45;62.74
70248;BME280;57641;51.416;5.506;2023-02-23T06:23:47;101469.19;;;13.50;62.59
70248;BME280;57641;51.416;5.506;2023-02-23T06:26:12;101467.34;;;13.50;62.14
70248;BME280;57641;51.416;5.506;2023-02-23T06:28:38;101475.41;;;13.50;62.20
70248;BME280;57641;51.416;5.506;2023-02-23T06:31:04;101474.69;;;13.48;61.66
70248;BME280;57641;51.416;5.506;2023-02-23T06:33:31;101475.72;;;13.47;61.81
70248;BME280;57641;51.416;5.506;2023-02-23T06:35:56;101471.03;;;13.49;62.01
70248;BME280;57641;51.416;5.506;2023-02-23T06:38:22;101478.06;;;13.50;62.19
70248;BME280;57641;51.416;5.506;2023-02-23T06:40:48;101486.81;;;13.52;62.04
70248;BME280;57641;51.416;5.506;2023-02-23T06:43:13;101482.44;;;13.51;61.99
70248;BME280;57641;51.416;5.506;2023-02-23T06:45:39;101493.31;;;13.50;62.03
70248;BME280;57641;51.416;5.506;2023-02-23T06:48:05;101491.31;;;13.52;62.01
70248;BME280;57641;51.416;5.506;2023-02-23T06:50:31;101492.31;;;13.51;62.16
70248;BME280;57641;51.416;5.506;2023-02-23T06:52:57;101493.16;;;13.51;61.87
70248;BME280;57641;51.416;5.506;2023-02-23T06:55:23;101497.66;;;13.51;61.84
70248;BME280;57641;51.416;5.506;2023-02-23T06:57:53;101501.84;;;13.53;62.10
70248;BME280;57641;51.416;5.506;2023-02-23T07:00:19;101493.44;;;13.48;61.68
70248;BME280;57641;51.416;5.506;2023-02-23T07:02:45;101502.50;;;13.47;61.97
70248;BME280;57641;51.416;5.506;2023-02-23T07:05:11;101496.47;;;13.45;61.93
70248;BME280;57641;51.416;5.506;2023-02-23T07:07:37;101507.03;;;13.47;61.94
70248;BME280;57641;51.416;5.506;2023-02-23T07:10:04;101499.97;;;13.46;62.25
70248;BME280;57641;51.416;5.506;2023-02-23T07:12:29;101505.47;;;13.44;61.92
70248;BME280;57641;51.416;5.506;2023-02-23T07:14:55;101504.50;;;13.45;62.50
70248;BME280;57641;51.416;5.506;2023-02-23T07:17:21;101519.72;;;13.45;62.30
70248;BME280;57641;51.416;5.506;2023-02-23T07:19:49;101521.25;;;13.47;62.37
70248;BME280;57641;51.416;5.506;2023-02-23T07:22:15;101522.53;;;13.43;62.06
70248;BME280;57641;51.416;5.506;2023-02-23T07:24:40;101523.09;;;13.29;62.48
70248;BME280;57641;51.416;5.506;2023-02-23T07:27:06;101529.22;;;13.39;62.44
70248;BME280;57641;51.416;5.506;2023-02-23T07:29:31;101529.69;;;13.35;62.02
70248;BME280;57641;51.416;5.506;2023-02-23T07:31:57;101530.91;;;13.40;62.71
70248;BME280;57641;51.416;5.506;2023-02-23T07:34:22;101533.72;;;13.39;62.72
70248;BME280;57641;51.416;5.506;2023-02-23T07:36:48;101545.59;;;13.36;62.36
70248;BME280;57641;51.416;5.506;2023-02-23T07:39:13;101548.28;;;13.36;61.85
70248;BME280;57641;51.416;5.506;2023-02-23T07:41:39;101551.25;;;13.33;62.38
70248;BME280;57641;51.416;5.506;2023-02-23T07:44:04;101560.31;;;13.32;62.48
70248;BME280;57641;51.416;5.506;2023-02-23T07:46:30;101557.63;;;13.32;62.68
70248;BME280;57641;51.416;5.506;2023-02-23T07:48:56;101562.66;;;13.35;62.83
70248;BME280;57641;51.416;5.506;2023-02-23T07:51:21;101561.81;;;13.35;63.00
70248;BME280;57641;51.416;5.506;2023-02-23T07:53:47;101575.91;;;13.37;63.00
70248;BME280;57641;51.416;5.506;2023-02-23T07:56:13;101578.41;;;13.38;62.84
70248;BME280;57641;51.416;5.506;2023-02-23T07:58:40;101581.88;;;13.31;62.92
70248;BME280;57641;51.416;5.506;2023-02-23T08:01:07;101588.47;;;13.36;62.93
70248;BME280;57641;51.416;5.506;2023-02-23T08:03:32;101597.50;;;13.35;62.84
70248;BME280;57641;51.416;5.506;2023-02-23T08:05:58;101598.63;;;13.33;62.64
70248;BME280;57641;51.416;5.506;2023-02-23T08:08:24;101595.19;;;13.40;62.58
70248;BME280;57641;51.416;5.506;2023-02-23T08:10:50;101608.25;;;13.43;63.25
70248;BME280;57641;51.416;5.506;2023-02-23T08:13:16;101596.75;;;13.43;62.69
70248;BME280;57641;51.416;5.506;2023-02-23T08:15:42;101607.50;;;13.51;62.65
70248;BME280;57641;51.416;5.506;2023-02-23T08:18:08;101607.19;;;13.54;62.38
70248;BME280;57641;51.416;5.506;2023-02-23T08:20:37;101607.38;;;13.52;61.58
70248;BME280;57641;51.416;5.506;2023-02-23T08:23:02;101602.00;;;13.52;61.79
70248;BME280;57641;51.416;5.506;2023-02-23T08:25:27;101601.41;;;13.59;61.87
70248;BME280;57641;51.416;5.506;2023-02-23T08:27:53;101607.03;;;13.56;61.61
70248;BME280;57641;51.416;5.506;2023-02-23T08:30:20;101613.38;;;13.54;61.31
70248;BME280;57641;51.416;5.506;2023-02-23T08:32:47;101613.56;;;13.53;61.47
70248;BME280;57641;51.416;5.506;2023-02-23T08:35:13;101612.13;;;13.59;61.74
70248;BME280;57641;51.416;5.506;2023-02-23T08:37:39;101615.16;;;13.64;62.01
70248;BME280;57641;51.416;5.506;2023-02-23T08:40:07;101614.84;;;13.67;61.95
70248;BME280;57641;51.416;5.506;2023-02-23T08:42:33;101613.00;;;13.67;61.23
70248;BME280;57641;51.416;5.506;2023-02-23T08:44:59;101622.19;;;13.65;61.14
70248;BME280;57641;51.416;5.506;2023-02-23T08:47:26;101619.50;;;13.65;61.73
70248;BME280;57641;51.416;5.506;2023-02-23T08:49:52;101619.84;;;13.62;61.88
70248;BME280;57641;51.416;5.506;2023-02-23T08:52:21;101628.56;;;13.64;61.73
70248;BME280;57641;51.416;5.506;2023-02-23T08:54:48;101619.06;;;13.69;62.17
70248;BME280;57641;51.416;5.506;2023-02-23T08:57:13;101626.66;;;13.74;62.09
70248;BME280;57641;51.416;5.506;2023-02-23T08:59:39;101626.19;;;13.78;60.90
70248;BME280;57641;51.416;5.506;2023-02-23T09:02:06;101632.00;;;13.74;61.32
70248;BME280;57641;51.416;5.506;2023-02-23T09:04:34;101633.66;;;13.75;61.30
70248;BME280;57641;51.416;5.506;2023-02-23T09:07:02;101633.00;;;13.73;61.54
70248;BME280;57641;51.416;5.506;2023-02-23T09:09:28;101639.34;;;13.72;61.72
70248;BME280;57641;51.416;5.506;2023-02-23T09:11:53;101647.53;;;13.70;61.97
70248;BME280;57641;51.416;5.506;2023-02-23T09:14:19;101656.50;;;13.79;61.95
70248;BME280;57641;51.416;5.506;2023-02-23T09:16:45;101642.72;;;13.74;60.96
70248;BME280;57641;51.416;5.506;2023-02-23T09:19:11;101653.91;;;13.69;61.11
70248;BME280;57641;51.416;5.506;2023-02-23T09:21:37;101641.03;;;13.73;61.67
70248;BME280;57641;51.416;5.506;2023-02-23T09:24:02;101649.59;;;13.76;61.85
70248;BME280;57641;51.416;5.506;2023-02-23T09:26:28;101648.59;;;13.77;61.10
70248;BME280;57641;51.416;5.506;2023-02-23T09:28:54;101649.22;;;13.89;61.68
70248;BME280;57641;51.416;5.506;2023-02-23T09:31:22;101652.13;;;13.95;61.51
70248;BME280;57641;51.416;5.506;2023-02-23T09:33:48;101655.78;;;13.94;60.97
70248;BME280;57641;51.416;5.506;2023-02-23T09:36:20;101667.19;;;13.96;60.48
70248;BME280;57641;51.416;5.506;2023-02-23T09:38:49;101667.97;;;13.89;60.45
70248;BME280;57641;51.416;5.506;2023-02-23T09:43:54;101669.97;;;13.87;60.91
70248;BME280;57641;51.416;5.506;2023-02-23T09:49:00;101666.91;;;13.82;60.05
70248;BME280;57641;51.416;5.506;2023-02-23T09:51:29;101673.84;;;13.75;60.35
70248;BME280;57641;51.416;5.506;2023-02-23T09:54:00;101671.88;;;13.77;60.16
70248;BME280;57641;51.416;5.506;2023-02-23T09:56:37;101672.91;;;13.58;60.04
70248;BME280;57641;51.416;5.506;2023-02-23T09:59:14;101681.22;;;13.73;60.97
70248;BME280;57641;51.416;5.506;2023-02-23T10:01:49;101683.78;;;13.74;60.71
70248;BME280;57641;51.416;5.506;2023-02-23T10:05:06;101684.28;;;13.78;61.14
70248;BME280;57641;51.416;5.506;2023-02-23T10:15:51;101684.34;;;13.86;60.82
70248;BME280;57641;51.416;5.506;2023-02-23T10:21:05;101675.94;;;13.99;61.46
70248;BME280;57641;51.416;5.506;2023-02-23T10:23:51;101681.53;;;14.05;60.91
70248;BME280;57641;51.416;5.506;2023-02-23T10:26:24;101686.88;;;14.05;59.88
70248;BME280;57641;51.416;5.506;2023-02-23T10:28:53;101692.84;;;13.99;60.59
70248;BME280;57641;51.416;5.506;2023-02-23T10:31:41;101687.25;;;14.10;59.77
70248;BME280;57641;51.416;5.506;2023-02-23T10:34:12;101683.34;;;14.05;60.19
70248;BME280;57641;51.416;5.506;2023-02-23T10:36:43;101680.72;;;14.13;60.33
70248;BME280;57641;51.416;5.506;2023-02-23T10:39:11;101673.03;;;14.18;60.21
70248;BME280;57641;51.416;5.506;2023-02-23T10:41:38;101686.16;;;14.21;60.20
70248;BME280;57641;51.416;5.506;2023-02-23T10:44:05;101685.97;;;14.22;59.90
70248;BME280;57641;51.416;5.506;2023-02-23T10:46:39;101688.88;;;14.29;59.35
70248;BME280;57641;51.416;5.506;2023-02-23T10:49:15;101692.28;;;14.31;59.23
70248;BME280;57641;51.416;5.506;2023-02-23T10:51:44;101700.31;;;14.31;58.43
70248;BME280;57641;51.416;5.506;2023-02-23T10:54:39;101698.72;;;14.38;58.22
70248;BME280;57641;51.416;5.506;2023-02-23T10:57:11;101704.97;;;14.29;58.05
70248;BME280;57641;51.416;5.506;2023-02-23T11:02:28;101699.41;;;14.22;58.43
70248;BME280;57641;51.416;5.506;2023-02-23T11:04:57;101690.91;;;14.27;58.00
70248;BME280;57641;51.416;5.506;2023-02-23T11:07:25;101699.94;;;14.26;59.11
70248;BME280;57641;51.416;5.506;2023-02-23T11:09:58;101695.94;;;14.30;57.80
70248;BME280;57641;51.416;5.506;2023-02-23T11:12:39;101703.66;;;14.33;58.00
70248;BME280;57641;51.416;5.506;2023-02-23T11:15:28;101700.47;;;14.29;57.14
70248;BME280;57641;51.416;5.506;2023-02-23T11:18:00;101701.63;;;14.27;58.39
70248;BME280;57641;51.416;5.506;2023-02-23T11:20:32;101698.88;;;14.36;58.29
70248;BME280;57641;51.416;5.506;2023-02-23T11:23:07;101701.09;;;14.41;57.48
70248;BME280;57641;51.416;5.506;2023-02-23T11:25:33;101704.63;;;14.42;57.71
70248;BME280;57641;51.416;5.506;2023-02-23T11:27:59;101695.75;;;14.49;58.03
70248;BME280;57641;51.416;5.506;2023-02-23T11:30:32;101701.13;;;14.49;57.18
70248;BME280;57641;51.416;5.506;2023-02-23T11:33:01;101704.91;;;14.38;56.91
70248;BME280;57641;51.416;5.506;2023-02-23T11:35:35;101706.78;;;14.38;56.83
70248;BME280;57641;51.416;5.506;2023-02-23T11:38:22;101692.78;;;14.34;57.39
70248;BME280;57641;51.416;5.506;2023-02-23T11:41:01;101693.41;;;14.28;57.30
70248;BME280;57641;51.416;5.506;2023-02-23T11:43:27;101688.00;;;14.20;56.86
70248;BME280;57641;51.416;5.506;2023-02-23T11:45:55;101684.31;;;14.21;56.66
70248;BME280;57641;51.416;5.506;2023-02-23T11:48:32;101687.31;;;14.18;57.00
70248;BME280;57641;51.416;5.506;2023-02-23T11:50:58;101685.84;;;14.24;56.89
70248;BME280;57641;51.416;5.506;2023-02-23T11:53:36;101689.88;;;14.28;56.13
70248;BME280;57641;51.416;5.506;2023-02-23T11:56:05;101681.47;;;14.23;56.77
70248;BME280;57641;51.416;5.506;2023-02-23T11:58:46;101683.00;;;14.25;56.52
70248;BME280;57641;51.416;5.506;2023-02-23T12:01:16;101687.00;;;14.21;56.63
70248;BME280;57641;51.416;5.506;2023-02-23T12:03:55;101691.06;;;14.25;56.97
70248;BME280;57641;51.416;5.506;2023-02-23T12:06:30;101686.91;;;14.31;56.82
70248;BME280;57641;51.416;5.506;2023-02-23T12:09:22;101693.41;;;14.28;57.03
70248;BME280;57641;51.416;5.506;2023-02-23T12:12:14;101689.59;;;14.31;56.47
70248;BME280;57641;51.416;5.506;2023-02-23T12:14:52;101686.38;;;14.27;57.44
70248;BME280;57641;51.416;5.506;2023-02-23T12:17:26;101679.47;;;14.43;56.50
70248;BME280;57641;51.416;5.506;2023-02-23T12:20:19;101665.44;;;14.49;56.59
70248;BME280;57641;51.416;5.506;2023-02-23T12:22:51;101659.63;;;14.61;56.79
70248;BME280;57641;51.416;5.506;2023-02-23T12:25:44;101662.50;;;14.68;55.59
70248;BME280;57641;51.416;5.506;2023-02-23T12:28:30;101651.63;;;14.69;56.35
70248;BME280;57641;51.416;5.506;2023-02-23T12:31:00;101663.38;;;14.76;57.40
70248;BME280;57641;51.416;5.506;2023-02-23T12:33:38;101665.56;;;14.81;56.08
70248;BME280;57641;51.416;5.506;2023-02-23T12:36:29;101665.28;;;14.92;56.31
70248;BME280;57641;51.416;5.506;2023-02-23T12:39:20;101662.81;;;14.99;56.62
70248;BME280;57641;51.416;5.506;2023-02-23T12:42:05;101671.06;;;15.05;54.82
70248;BME280;57641;51.416;5.506;2023-02-23T12:47:19;101661.31;;;14.96;53.68
70248;BME280;57641;51.416;5.506;2023-02-23T12:50:00;101665.28;;;14.84;53.92
70248;BME280;57641;51.416;5.506;2023-02-23T12:52:59;101660.06;;;14.83;53.42
70248;BME280;57641;51.416;5.506;2023-02-23T13:01:09;101663.47;;;14.59;53.19
70248;BME280;57641;51.416;5.506;2023-02-23T13:06:57;101661.25;;;14.54;53.89
70248;BME280;57641;51.416;5.506;2023-02-23T13:09:57;101671.63;;;14.75;53.61
70248;BME280;57641;51.416;5.506;2023-02-23T13:12:41;101672.91;;;14.71;53.21
70248;BME280;57641;51.416;5.506;2023-02-23T13:18:12;101659.38;;;14.80;53.27
70248;BME280;57641;51.416;5.506;2023-02-23T13:21:22;101662.88;;;14.81;52.43
70248;BME280;57641;51.416;5.506;2023-02-23T13:26:34;101664.72;;;14.80;52.05
70248;BME280;57641;51.416;5.506;2023-02-23T13:31:36;101662.78;;;14.57;52.55
70248;BME280;57641;51.416;5.506;2023-02-23T13:34:05;101665.50;;;14.65;53.58
70248;BME280;57641;51.416;5.506;2023-02-23T13:36:34;101669.19;;;14.64;52.84
70248;BME280;57641;51.416;5.506;2023-02-23T13:50:22;101678.72;;;14.58;52.85
70248;BME280;57641;51.416;5.506;2023-02-23T13:52:50;101681.91;;;14.54;52.79
70248;BME280;57641;51.416;5.506;2023-02-23T13:58:15;101677.81;;;14.50;52.02
70248;BME280;57641;51.416;5.506;2023-02-23T14:00:42;101686.19;;;14.47;52.08
70248;BME280;57641;51.416;5.506;2023-02-23T14:03:21;101681.84;;;14.46;52.25
70248;BME280;57641;51.416;5.506;2023-02-23T14:05:53;101682.81;;;14.45;52.87
70248;BME280;57641;51.416;5.506;2023-02-23T14:08:42;101672.78;;;14.47;52.97
70248;BME280;57641;51.416;5.506;2023-02-23T14:11:09;101672.78;;;14.47;53.05
70248;BME280;57641;51.416;5.506;2023-02-23T14:14:00;101682.16;;;14.25;53.18
70248;BME280;57641;51.416;5.506;2023-02-23T14:16:26;101679.38;;;14.34;52.97
70248;BME280;57641;51.416;5.506;2023-02-23T14:19:05;101685.84;;;14.42;52.87
70248;BME280;57641;51.416;5.506;2023-02-23T14:21:58;101691.50;;;14.38;51.79
70248;BME280;57641;51.416;5.506;2023-02-23T14:24:26;101695.78;;;14.31;51.56
70248;BME280;57641;51.416;5.506;2023-02-23T14:27:10;101698.63;;;14.30;51.82
70248;BME280;57641;51.416;5.506;2023-02-23T14:29:44;101699.03;;;14.17;51.39
70248;BME280;57641;51.416;5.506;2023-02-23T14:32:28;101701.13;;;14.06;52.82
70248;BME280;57641;51.416;5.506;2023-02-23T14:35:00;101707.75;;;14.19;52.60
70248;BME280;57641;51.416;5.506;2023-02-23T14:37:37;101701.41;;;14.20;52.53
70248;BME280;57641;51.416;5.506;2023-02-23T14:40:17;101694.63;;;14.34;53.75
70248;BME280;57641;51.416;5.506;2023-02-23T14:42:49;101701.41;;;14.38;52.71
70248;BME280;57641;51.416;5.506;2023-02-23T14:45:22;101694.47;;;14.35;52.64
70248;BME280;57641;51.416;5.506;2023-02-23T14:47:52;101703.84;;;14.31;52.24
70248;BME280;57641;51.416;5.506;2023-02-23T14:50:25;101697.31;;;14.34;52.54
70248;BME280;57641;51.416;5.506;2023-02-23T14:52:53;101699.16;;;14.33;52.91